sensor_id;sensor_type;location;lat;lon;timestamp;P1;durP1;ratioP1;P2;durP2;ratioP2
20411;SDS011;10365;52.578;8.138;2023-06-10T00:01:57;12.63;;;6.28;;
20411;SDS011;10365;52.578;8.138;2023-06-10T00:04:23;13.15;;;6.75;;
20411;SDS011;10365;52.578;8.138;2023-06-10T00:06:48;9.85;;;5.97;;
20411;SDS011;10365;52.578;8.138;2023-06-10T00:09:14;12.57;;;6.05;;
20411;SDS011;10365;52.578;8.138;2023-06-10T00:11:40;12.32;;;6.28;;
20411;SDS011;10365;52.578;8.138;2023-06-10T00:14:05;13.25;;;6.43;;
20411;SDS011;10365;52.578;8.138;2023-06-10T00:16:30;11.65;;;6.28;;
20411;SDS011;10365;52.578;8.138;2023-06-10T00:18:56;10.27;;;6.43;;
20411;SDS011;10365;52.578;8.138;2023-06-10T00:21:26;11.90;;;6.63;;
20411;SDS011;10365;52.578;8.138;2023-06-10T00:23:51;10.60;;;6.50;;
20411;SDS011;10365;52.578;8.138;2023-06-10T00:26:17;15.18;;;5.93;;
20411;SDS011;10365;52.578;8.138;2023-06-10T00:28:43;13.35;;;6.30;;
20411;SDS011;10365;52.578;8.138;2023-06-10T00:31:10;10.88;;;6.53;;
20411;SDS011;10365;52.578;8.138;2023-06-10T00:33:35;11.32;;;6.25;;
20411;SDS011;10365;52.578;8.138;2023-06-10T00:36:01;10.20;;;6.57;;
20411;SDS011;10365;52.578;8.138;2023-06-10T00:38:27;11.07;;;5.82;;
20411;SDS011;10365;52.578;8.138;2023-06-10T00:40:52;12.35;;;6.30;;
20411;SDS011;10365;52.578;8.138;2023-06-10T00:43:18;14.50;;;6.47;;
20411;SDS011;10365;52.578;8.138;2023-06-10T00:45:43;15.20;;;6.80;;
20411;SDS011;10365;52.578;8.138;2023-06-10T00:48:08;12.18;;;6.03;;
20411;SDS011;10365;52.578;8.138;2023-06-10T00:50:34;12.00;;;6.75;;
20411;SDS011;10365;52.578;8.138;2023-06-10T00:53:00;13.25;;;6.80;;
20411;SDS011;10365;52.578;8.138;2023-06-10T00:55:25;13.88;;;6.70;;
20411;SDS011;10365;52.578;8.138;2023-06-10T00:57:52;14.88;;;7.55;;
20411;SDS011;10365;52.578;8.138;2023-06-10T01:00:18;20.00;;;7.40;;
20411;SDS011;10365;52.578;8.138;2023-06-10T01:02:43;12.52;;;6.07;;
20411;SDS011;10365;52.578;8.138;2023-06-10T01:05:09;15.93;;;6.65;;
20411;SDS011;10365;52.578;8.138;2023-06-10T01:07:40;9.82;;;6.22;;
20411;SDS011;10365;52.578;8.138;2023-06-10T01:15:05;14.30;;;6.80;;
20411;SDS011;10365;52.578;8.138;2023-06-10T01:17:30;16.83;;;7.57;;
20411;SDS011;10365;52.578;8.138;2023-06-10T01:19:57;16.92;;;8.18;;
20411;SDS011;10365;52.578;8.138;2023-06-10T01:22:26;15.73;;;8.30;;
20411;SDS011;10365;52.578;8.138;2023-06-10T01:24:57;12.50;;;7.00;;
20411;SDS011;10365;52.578;8.138;2023-06-10T01:27:23;12.77;;;6.90;;
20411;SDS011;10365;52.578;8.138;2023-06-10T01:29:58;15.18;;;7.32;;
20411;SDS011;10365;52.578;8.138;2023-06-10T01:34:49;12.05;;;6.13;;
20411;SDS011;10365;52.578;8.138;2023-06-10T01:37:16;11.70;;;7.72;;
20411;SDS011;10365;52.578;8.138;2023-06-10T01:39:42;17.50;;;7.95;;
20411;SDS011;10365;52.578;8.138;2023-06-10T01:42:08;12.15;;;8.35;;
20411;SDS011;10365;52.578;8.138;2023-06-10T01:44:35;12.27;;;8.10;;
20411;SDS011;10365;52.578;8.138;2023-06-10T01:47:00;15.48;;;7.97;;
20411;SDS011;10365;52.578;8.138;2023-06-10T01:49:26;14.63;;;8.05;;
20411;SDS011;10365;52.578;8.138;2023-06-10T01:51:53;15.52;;;7.97;;
20411;SDS011;10365;52.578;8.138;2023-06-10T01:54:18;14.65;;;8.20;;
20411;SDS011;10365;52.578;8.138;2023-06-10T01:56:45;13.30;;;8.43;;
20411;SDS011;10365;52.578;8.138;2023-06-10T01:59:10;14.02;;;8.13;;
20411;SDS011;10365;52.578;8.138;2023-06-10T02:01:36;13.10;;;7.78;;
20411;SDS011;10365;52.578;8.138;2023-06-10T02:04:01;17.70;;;8.70;;
20411;SDS011;10365;52.578;8.138;2023-06-10T02:06:28;16.52;;;9.05;;
20411;SDS011;10365;52.578;8.138;2023-06-10T02:08:53;17.60;;;7.30;;
20411;SDS011;10365;52.578;8.138;2023-06-10T02:11:19;18.25;;;7.72;;
20411;SDS011;10365;52.578;8.138;2023-06-10T02:13:45;12.88;;;7.40;;
20411;SDS011;10365;52.578;8.138;2023-06-10T02:16:10;16.77;;;8.27;;
20411;SDS011;10365;52.578;8.138;2023-06-10T02:18:37;14.57;;;7.47;;
20411;SDS011;10365;52.578;8.138;2023-06-10T02:21:03;12.50;;;8.20;;
20411;SDS011;10365;52.578;8.138;2023-06-10T02:23:28;21.42;;;8.75;;
20411;SDS011;10365;52.578;8.138;2023-06-10T02:25:54;14.77;;;8.48;;
20411;SDS011;10365;52.578;8.138;2023-06-10T02:28:19;17.70;;;9.60;;
20411;SDS011;10365;52.578;8.138;2023-06-10T02:30:44;17.92;;;8.63;;
20411;SDS011;10365;52.578;8.138;2023-06-10T02:33:11;12.35;;;8.00;;
20411;SDS011;10365;52.578;8.138;2023-06-10T02:35:38;18.50;;;7.65;;
20411;SDS011;10365;52.578;8.138;2023-06-10T02:38:04;12.32;;;7.97;;
20411;SDS011;10365;52.578;8.138;2023-06-10T02:40:30;14.50;;;7.80;;
20411;SDS011;10365;52.578;8.138;2023-06-10T02:42:56;13.18;;;7.40;;
20411;SDS011;10365;52.578;8.138;2023-06-10T02:45:23;11.95;;;6.45;;
20411;SDS011;10365;52.578;8.138;2023-06-10T02:47:48;13.20;;;8.00;;
20411;SDS011;10365;52.578;8.138;2023-06-10T02:50:15;13.07;;;7.97;;
20411;SDS011;10365;52.578;8.138;2023-06-10T02:52:54;18.45;;;7.55;;
20411;SDS011;10365;52.578;8.138;2023-06-10T02:55:20;14.55;;;7.80;;
20411;SDS011;10365;52.578;8.138;2023-06-10T02:57:51;16.15;;;8.75;;
20411;SDS011;10365;52.578;8.138;2023-06-10T03:00:18;18.67;;;8.90;;
20411;SDS011;10365;52.578;8.138;2023-06-10T03:02:45;14.25;;;7.93;;
20411;SDS011;10365;52.578;8.138;2023-06-10T03:05:11;19.02;;;8.43;;
20411;SDS011;10365;52.578;8.138;2023-06-10T03:07:41;16.30;;;7.95;;
20411;SDS011;10365;52.578;8.138;2023-06-10T03:10:06;14.13;;;8.32;;
20411;SDS011;10365;52.578;8.138;2023-06-10T03:12:34;14.18;;;8.82;;
20411;SDS011;10365;52.578;8.138;2023-06-10T03:14:59;22.05;;;9.80;;
20411;SDS011;10365;52.578;8.138;2023-06-10T03:17:25;16.08;;;9.05;;
20411;SDS011;10365;52.578;8.138;2023-06-10T03:19:51;20.15;;;8.40;;
20411;SDS011;10365;52.578;8.138;2023-06-10T03:22:16;13.95;;;7.43;;
20411;SDS011;10365;52.578;8.138;2023-06-10T03:24:58;15.88;;;8.15;;
20411;SDS011;10365;52.578;8.138;2023-06-10T03:27:26;19.25;;;7.82;;
20411;SDS011;10365;52.578;8.138;2023-06-10T03:29:54;14.43;;;7.53;;
20411;SDS011;10365;52.578;8.138;2023-06-10T03:32:20;15.10;;;8.75;;
20411;SDS011;10365;52.578;8.138;2023-06-10T03:34:45;13.57;;;8.93;;
20411;SDS011;10365;52.578;8.138;2023-06-10T03:37:10;16.90;;;8.20;;
20411;SDS011;10365;52.578;8.138;2023-06-10T03:39:36;11.90;;;7.68;;
20411;SDS011;10365;52.578;8.138;2023-06-10T03:42:01;13.45;;;7.55;;
20411;SDS011;10365;52.578;8.138;2023-06-10T03:44:28;14.57;;;8.18;;
20411;SDS011;10365;52.578;8.138;2023-06-10T03:46:54;16.98;;;8.20;;
20411;SDS011;10365;52.578;8.138;2023-06-10T03:49:20;16.95;;;10.20;;
20411;SDS011;10365;52.578;8.138;2023-06-10T03:51:45;15.07;;;9.15;;
20411;SDS011;10365;52.578;8.138;2023-06-10T03:54:11;15.52;;;8.07;;
20411;SDS011;10365;52.578;8.138;2023-06-10T03:56:36;12.63;;;8.02;;
20411;SDS011;10365;52.578;8.138;2023-06-10T03:59:01;13.13;;;8.02;;
20411;SDS011;10365;52.578;8.138;2023-06-10T04:01:27;15.70;;;8.20;;
20411;SDS011;10365;52.578;8.138;2023-06-10T04:03:54;11.45;;;7.78;;
20411;SDS011;10365;52.578;8.138;2023-06-10T04:06:20;13.90;;;8.32;;
20411;SDS011;10365;52.578;8.138;2023-06-10T04:08:47;13.82;;;7.15;;
20411;SDS011;10365;52.578;8.138;2023-06-10T04:11:13;17.25;;;7.88;;
20411;SDS011;10365;52.578;8.138;2023-06-10T04:13:38;13.98;;;8.55;;
20411;SDS011;10365;52.578;8.138;2023-06-10T04:16:03;15.52;;;8.77;;
20411;SDS011;10365;52.578;8.138;2023-06-10T04:18:29;21.40;;;8.40;;
20411;SDS011;10365;52.578;8.138;2023-06-10T04:20:57;14.35;;;8.20;;
20411;SDS011;10365;52.578;8.138;2023-06-10T04:23:23;17.65;;;9.32;;
20411;SDS011;10365;52.578;8.138;2023-06-10T04:25:49;13.68;;;7.50;;
20411;SDS011;10365;52.578;8.138;2023-06-10T04:28:14;21.08;;;7.53;;
20411;SDS011;10365;52.578;8.138;2023-06-10T04:30:41;13.60;;;7.05;;
20411;SDS011;10365;52.578;8.138;2023-06-10T04:33:07;15.07;;;6.78;;
20411;SDS011;10365;52.578;8.138;2023-06-10T04:35:34;16.67;;;6.88;;
20411;SDS011;10365;52.578;8.138;2023-06-10T04:38:00;14.65;;;6.50;;
20411;SDS011;10365;52.578;8.138;2023-06-10T04:40:28;12.32;;;6.07;;
20411;SDS011;10365;52.578;8.138;2023-06-10T04:42:54;12.05;;;6.63;;
20411;SDS011;10365;52.578;8.138;2023-06-10T04:45:21;10.85;;;6.80;;
20411;SDS011;10365;52.578;8.138;2023-06-10T04:47:46;12.93;;;6.82;;
20411;SDS011;10365;52.578;8.138;2023-06-10T04:50:11;11.50;;;6.05;;
20411;SDS011;10365;52.578;8.138;2023-06-10T04:52:37;11.77;;;7.15;;
20411;SDS011;10365;52.578;8.138;2023-06-10T04:55:03;11.65;;;5.68;;
20411;SDS011;10365;52.578;8.138;2023-06-10T04:57:29;9.30;;;5.00;;
20411;SDS011;10365;52.578;8.138;2023-06-10T04:59:54;10.20;;;5.63;;
20411;SDS011;10365;52.578;8.138;2023-06-10T05:02:19;8.93;;;5.18;;
20411;SDS011;10365;52.578;8.138;2023-06-10T05:04:45;9.85;;;5.13;;
20411;SDS011;10365;52.578;8.138;2023-06-10T05:07:10;16.23;;;5.45;;
20411;SDS011;10365;52.578;8.138;2023-06-10T05:09:35;7.03;;;4.40;;
20411;SDS011;10365;52.578;8.138;2023-06-10T05:12:02;10.05;;;4.72;;
20411;SDS011;10365;52.578;8.138;2023-06-10T05:14:28;10.27;;;5.13;;
20411;SDS011;10365;52.578;8.138;2023-06-10T05:16:53;14.82;;;4.88;;
20411;SDS011;10365;52.578;8.138;2023-06-10T05:19:19;15.52;;;5.20;;
20411;SDS011;10365;52.578;8.138;2023-06-10T05:21:44;9.20;;;5.15;;
20411;SDS011;10365;52.578;8.138;2023-06-10T05:24:10;12.82;;;4.95;;
20411;SDS011;10365;52.578;8.138;2023-06-10T05:26:36;6.03;;;4.32;;
20411;SDS011;10365;52.578;8.138;2023-06-10T05:29:04;14.73;;;5.00;;
20411;SDS011;10365;52.578;8.138;2023-06-10T05:31:30;11.40;;;4.50;;
20411;SDS011;10365;52.578;8.138;2023-06-10T05:33:55;10.50;;;5.53;;
20411;SDS011;10365;52.578;8.138;2023-06-10T05:36:20;10.02;;;5.00;;
20411;SDS011;10365;52.578;8.138;2023-06-10T05:38:46;11.05;;;5.45;;
20411;SDS011;10365;52.578;8.138;2023-06-10T05:41:11;9.23;;;5.40;;
20411;SDS011;10365;52.578;8.138;2023-06-10T05:43:37;13.15;;;5.00;;
20411;SDS011;10365;52.578;8.138;2023-06-10T05:46:02;9.90;;;4.90;;
20411;SDS011;10365;52.578;8.138;2023-06-10T05:48:27;9.82;;;4.60;;
20411;SDS011;10365;52.578;8.138;2023-06-10T05:50:52;8.55;;;4.32;;
20411;SDS011;10365;52.578;8.138;2023-06-10T05:53:18;11.57;;;5.32;;
20411;SDS011;10365;52.578;8.138;2023-06-10T05:55:43;9.13;;;4.70;;
20411;SDS011;10365;52.578;8.138;2023-06-10T05:58:09;9.05;;;4.75;;
20411;SDS011;10365;52.578;8.138;2023-06-10T06:00:34;10.73;;;4.60;;
20411;SDS011;10365;52.578;8.138;2023-06-10T06:03:00;9.30;;;4.45;;
20411;SDS011;10365;52.578;8.138;2023-06-10T06:05:25;9.85;;;4.22;;
20411;SDS011;10365;52.578;8.138;2023-06-10T06:07:51;8.05;;;4.75;;
20411;SDS011;10365;52.578;8.138;2023-06-10T06:10:19;12.27;;;4.93;;
20411;SDS011;10365;52.578;8.138;2023-06-10T06:12:44;9.43;;;4.18;;
20411;SDS011;10365;52.578;8.138;2023-06-10T06:15:10;10.75;;;4.63;;
20411;SDS011;10365;52.578;8.138;2023-06-10T06:17:35;9.40;;;4.07;;
20411;SDS011;10365;52.578;8.138;2023-06-10T06:20:01;8.48;;;4.63;;
20411;SDS011;10365;52.578;8.138;2023-06-10T06:22:27;7.95;;;4.70;;
20411;SDS011;10365;52.578;8.138;2023-06-10T06:24:52;8.80;;;4.35;;
20411;SDS011;10365;52.578;8.138;2023-06-10T06:27:17;14.33;;;5.17;;
20411;SDS011;10365;52.578;8.138;2023-06-10T06:29:43;7.05;;;4.85;;
20411;SDS011;10365;52.578;8.138;2023-06-10T06:32:08;8.95;;;4.80;;
20411;SDS011;10365;52.578;8.138;2023-06-10T06:34:34;14.00;;;4.82;;
20411;SDS011;10365;52.578;8.138;2023-06-10T06:36:59;10.25;;;5.30;;
20411;SDS011;10365;52.578;8.138;2023-06-10T06:39:27;7.85;;;4.78;;
20411;SDS011;10365;52.578;8.138;2023-06-10T06:41:53;8.02;;;4.60;;
20411;SDS011;10365;52.578;8.138;2023-06-10T06:44:25;11.13;;;4.80;;
20411;SDS011;10365;52.578;8.138;2023-06-10T06:46:52;9.20;;;5.38;;
20411;SDS011;10365;52.578;8.138;2023-06-10T06:49:17;8.23;;;4.78;;
20411;SDS011;10365;52.578;8.138;2023-06-10T06:51:42;11.52;;;4.97;;
20411;SDS011;10365;52.578;8.138;2023-06-10T06:54:07;9.63;;;4.63;;
20411;SDS011;10365;52.578;8.138;2023-06-10T06:56:33;12.15;;;5.28;;
20411;SDS011;10365;52.578;8.138;2023-06-10T06:58:58;8.18;;;4.68;;
20411;SDS011;10365;52.578;8.138;2023-06-10T07:01:23;7.28;;;4.70;;
20411;SDS011;10365;52.578;8.138;2023-06-10T07:03:49;9.85;;;5.03;;
20411;SDS011;10365;52.578;8.138;2023-06-10T07:06:17;8.80;;;5.25;;
20411;SDS011;10365;52.578;8.138;2023-06-10T07:08:42;11.18;;;4.95;;
20411;SDS011;10365;52.578;8.138;2023-06-10T07:11:08;13.27;;;5.32;;
20411;SDS011;10365;52.578;8.138;2023-06-10T07:13:33;9.90;;;4.70;;
20411;SDS011;10365;52.578;8.138;2023-06-10T07:15:59;10.23;;;5.15;;
20411;SDS011;10365;52.578;8.138;2023-06-10T07:18:24;12.07;;;5.32;;
20411;SDS011;10365;52.578;8.138;2023-06-10T07:20:49;8.48;;;5.05;;
20411;SDS011;10365;52.578;8.138;2023-06-10T07:23:16;8.73;;;4.35;;
20411;SDS011;10365;52.578;8.138;2023-06-10T07:25:41;11.18;;;4.85;;
20411;SDS011;10365;52.578;8.138;2023-06-10T07:28:07;11.00;;;5.47;;
20411;SDS011;10365;52.578;8.138;2023-06-10T07:30:32;9.35;;;4.88;;
20411;SDS011;10365;52.578;8.138;2023-06-10T07:32:57;7.53;;;4.88;;
20411;SDS011;10365;52.578;8.138;2023-06-10T07:35:23;7.47;;;4.50;;
20411;SDS011;10365;52.578;8.138;2023-06-10T07:37:48;10.52;;;4.65;;
20411;SDS011;10365;52.578;8.138;2023-06-10T07:40:14;9.10;;;5.20;;
20411;SDS011;10365;52.578;8.138;2023-06-10T07:42:39;9.05;;;5.20;;
20411;SDS011;10365;52.578;8.138;2023-06-10T07:45:05;10.70;;;4.43;;
20411;SDS011;10365;52.578;8.138;2023-06-10T07:47:30;8.57;;;4.78;;
20411;SDS011;10365;52.578;8.138;2023-06-10T07:49:56;11.25;;;5.60;;
20411;SDS011;10365;52.578;8.138;2023-06-10T07:52:21;9.90;;;4.82;;
20411;SDS011;10365;52.578;8.138;2023-06-10T07:54:47;8.73;;;4.70;;
20411;SDS011;10365;52.578;8.138;2023-06-10T07:57:12;10.90;;;5.30;;
20411;SDS011;10365;52.578;8.138;2023-06-10T07:59:37;12.40;;;5.47;;
20411;SDS011;10365;52.578;8.138;2023-06-10T08:02:03;7.75;;;4.53;;
20411;SDS011;10365;52.578;8.138;2023-06-10T08:04:28;9.05;;;4.13;;
20411;SDS011;10365;52.578;8.138;2023-06-10T08:06:56;6.53;;;4.47;;
20411;SDS011;10365;52.578;8.138;2023-06-10T08:09:21;10.05;;;4.45;;
20411;SDS011;10365;52.578;8.138;2023-06-10T08:11:48;12.35;;;4.65;;
20411;SDS011;10365;52.578;8.138;2023-06-10T08:14:13;6.63;;;4.75;;
20411;SDS011;10365;52.578;8.138;2023-06-10T08:16:39;12.32;;;4.93;;
20411;SDS011;10365;52.578;8.138;2023-06-10T08:19:04;8.32;;;4.88;;
20411;SDS011;10365;52.578;8.138;2023-06-10T08:21:30;8.52;;;5.50;;
20411;SDS011;10365;52.578;8.138;2023-06-10T08:23:56;11.35;;;5.13;;
20411;SDS011;10365;52.578;8.138;2023-06-10T08:26:21;13.95;;;5.78;;
20411;SDS011;10365;52.578;8.138;2023-06-10T08:28:46;9.30;;;5.18;;
20411;SDS011;10365;52.578;8.138;2023-06-10T08:31:12;11.63;;;4.85;;
20411;SDS011;10365;52.578;8.138;2023-06-10T08:33:37;10.38;;;4.93;;
20411;SDS011;10365;52.578;8.138;2023-06-10T08:36:02;8.90;;;5.00;;
20411;SDS011;10365;52.578;8.138;2023-06-10T08:38:27;9.50;;;4.85;;
20411;SDS011;10365;52.578;8.138;2023-06-10T08:40:54;9.00;;;4.63;;
20411;SDS011;10365;52.578;8.138;2023-06-10T08:43:22;13.05;;;5.50;;
20411;SDS011;10365;52.578;8.138;2023-06-10T08:45:51;7.82;;;5.40;;
20411;SDS011;10365;52.578;8.138;2023-06-10T08:48:18;8.70;;;4.90;;
20411;SDS011;10365;52.578;8.138;2023-06-10T08:50:44;7.88;;;4.90;;
20411;SDS011;10365;52.578;8.138;2023-06-10T08:53:10;12.95;;;5.05;;
20411;SDS011;10365;52.578;8.138;2023-06-10T08:55:41;11.35;;;5.97;;
20411;SDS011;10365;52.578;8.138;2023-06-10T08:58:06;8.63;;;4.53;;
20411;SDS011;10365;52.578;8.138;2023-06-10T09:00:32;10.40;;;5.20;;
20411;SDS011;10365;52.578;8.138;2023-06-10T09:03:07;12.35;;;5.18;;
20411;SDS011;10365;52.578;8.138;2023-06-10T09:05:35;9.30;;;4.68;;
20411;SDS011;10365;52.578;8.138;2023-06-10T09:08:02;10.13;;;4.65;;
20411;SDS011;10365;52.578;8.138;2023-06-10T09:10:27;12.10;;;5.40;;
20411;SDS011;10365;52.578;8.138;2023-06-10T09:12:53;9.18;;;4.90;;
20411;SDS011;10365;52.578;8.138;2023-06-10T09:15:18;8.40;;;4.78;;
20411;SDS011;10365;52.578;8.138;2023-06-10T09:17:44;71.05;;;8.38;;
20411;SDS011;10365;52.578;8.138;2023-06-10T09:20:10;6.85;;;4.28;;
20411;SDS011;10365;52.578;8.138;2023-06-10T09:22:36;18.63;;;5.00;;
20411;SDS011;10365;52.578;8.138;2023-06-10T09:25:11;9.93;;;4.93;;
20411;SDS011;10365;52.578;8.138;2023-06-10T09:27:43;9.77;;;4.57;;
20411;SDS011;10365;52.578;8.138;2023-06-10T09:30:09;11.60;;;4.97;;
20411;SDS011;10365;52.578;8.138;2023-06-10T09:32:38;11.45;;;5.53;;
20411;SDS011;10365;52.578;8.138;2023-06-10T09:35:08;10.77;;;4.38;;
20411;SDS011;10365;52.578;8.138;2023-06-10T09:37:34;9.15;;;4.57;;
20411;SDS011;10365;52.578;8.138;2023-06-10T09:40:06;9.25;;;4.78;;
20411;SDS011;10365;52.578;8.138;2023-06-10T09:42:33;8.90;;;4.65;;
20411;SDS011;10365;52.578;8.138;2023-06-10T09:44:59;11.10;;;4.90;;
20411;SDS011;10365;52.578;8.138;2023-06-10T09:47:24;11.90;;;4.90;;
20411;SDS011;10365;52.578;8.138;2023-06-10T09:49:50;6.72;;;5.05;;
20411;SDS011;10365;52.578;8.138;2023-06-10T09:52:49;6.53;;;4.32;;
20411;SDS011;10365;52.578;8.138;2023-06-10T09:55:07;7.60;;;4.32;;
20411;SDS011;10365;52.578;8.138;2023-06-10T09:57:33;9.77;;;4.97;;
20411;SDS011;10365;52.578;8.138;2023-06-10T09:59:59;10.23;;;4.60;;
20411;SDS011;10365;52.578;8.138;2023-06-10T10:02:24;12.88;;;4.03;;
20411;SDS011;10365;52.578;8.138;2023-06-10T10:04:49;13.43;;;4.90;;
20411;SDS011;10365;52.578;8.138;2023-06-10T10:07:15;7.65;;;4.60;;
20411;SDS011;10365;52.578;8.138;2023-06-10T10:09:41;7.55;;;4.40;;
20411;SDS011;10365;52.578;8.138;2023-06-10T10:12:15;9.52;;;4.35;;
20411;SDS011;10365;52.578;8.138;2023-06-10T10:14:45;8.90;;;5.15;;
20411;SDS011;10365;52.578;8.138;2023-06-10T10:17:11;13.32;;;4.90;;
20411;SDS011;10365;52.578;8.138;2023-06-10T10:19:46;6.32;;;4.32;;
20411;SDS011;10365;52.578;8.138;2023-06-10T10:22:15;8.00;;;4.68;;
20411;SDS011;10365;52.578;8.138;2023-06-10T10:24:42;10.43;;;4.55;;
20411;SDS011;10365;52.578;8.138;2023-06-10T10:27:27;5.78;;;4.15;;
20411;SDS011;10365;52.578;8.138;2023-06-10T10:29:53;8.30;;;3.88;;
20411;SDS011;10365;52.578;8.138;2023-06-10T10:32:20;6.95;;;4.07;;
20411;SDS011;10365;52.578;8.138;2023-06-10T10:34:49;7.85;;;3.85;;
20411;SDS011;10365;52.578;8.138;2023-06-10T10:37:19;7.43;;;4.50;;
20411;SDS011;10365;52.578;8.138;2023-06-10T10:39:45;7.45;;;3.85;;
20411;SDS011;10365;52.578;8.138;2023-06-10T10:42:10;8.00;;;4.22;;
20411;SDS011;10365;52.578;8.138;2023-06-10T10:44:39;6.38;;;4.47;;
20411;SDS011;10365;52.578;8.138;2023-06-10T10:47:05;9.02;;;4.53;;
20411;SDS011;10365;52.578;8.138;2023-06-10T10:49:32;7.00;;;4.25;;
20411;SDS011;10365;52.578;8.138;2023-06-10T10:51:59;7.05;;;4.18;;
20411;SDS011;10365;52.578;8.138;2023-06-10T10:54:29;7.85;;;4.50;;
20411;SDS011;10365;52.578;8.138;2023-06-10T10:57:14;6.50;;;3.78;;
20411;SDS011;10365;52.578;8.138;2023-06-10T11:04:46;7.05;;;4.40;;
20411;SDS011;10365;52.578;8.138;2023-06-10T11:07:12;7.22;;;3.63;;
20411;SDS011;10365;52.578;8.138;2023-06-10T11:09:46;6.43;;;3.85;;
20411;SDS011;10365;52.578;8.138;2023-06-10T11:12:22;6.43;;;3.78;;
20411;SDS011;10365;52.578;8.138;2023-06-10T11:14:53;7.40;;;4.00;;
20411;SDS011;10365;52.578;8.138;2023-06-10T11:17:21;6.63;;;3.70;;
20411;SDS011;10365;52.578;8.138;2023-06-10T11:19:47;6.13;;;3.53;;
20411;SDS011;10365;52.578;8.138;2023-06-10T11:22:18;6.95;;;3.38;;
20411;SDS011;10365;52.578;8.138;2023-06-10T11:24:47;3.95;;;2.75;;
20411;SDS011;10365;52.578;8.138;2023-06-10T11:27:20;5.10;;;3.03;;
20411;SDS011;10365;52.578;8.138;2023-06-10T11:32:20;5.55;;;3.60;;
20411;SDS011;10365;52.578;8.138;2023-06-10T11:34:47;6.25;;;3.83;;
20411;SDS011;10365;52.578;8.138;2023-06-10T11:37:16;7.63;;;4.00;;
20411;SDS011;10365;52.578;8.138;2023-06-10T11:39:42;6.78;;;3.33;;
20411;SDS011;10365;52.578;8.138;2023-06-10T11:42:07;9.48;;;3.63;;
20411;SDS011;10365;52.578;8.138;2023-06-10T11:44:33;5.20;;;3.00;;
20411;SDS011;10365;52.578;8.138;2023-06-10T11:47:02;3.95;;;3.00;;
20411;SDS011;10365;52.578;8.138;2023-06-10T11:49:28;6.95;;;2.75;;
20411;SDS011;10365;52.578;8.138;2023-06-10T11:51:53;7.05;;;3.13;;
20411;SDS011;10365;52.578;8.138;2023-06-10T11:54:18;4.30;;;3.00;;
20411;SDS011;10365;52.578;8.138;2023-06-10T11:56:44;6.35;;;3.38;;
20411;SDS011;10365;52.578;8.138;2023-06-10T11:59:10;7.32;;;3.75;;
20411;SDS011;10365;52.578;8.138;2023-06-10T12:01:41;6.07;;;3.60;;
20411;SDS011;10365;52.578;8.138;2023-06-10T12:04:08;4.60;;;2.80;;
20411;SDS011;10365;52.578;8.138;2023-06-10T12:06:40;4.57;;;3.08;;
20411;SDS011;10365;52.578;8.138;2023-06-10T12:09:13;7.95;;;3.03;;
20411;SDS011;10365;52.578;8.138;2023-06-10T12:11:38;5.28;;;2.78;;
20411;SDS011;10365;52.578;8.138;2023-06-10T12:14:04;4.65;;;2.92;;
20411;SDS011;10365;52.578;8.138;2023-06-10T12:16:30;7.65;;;3.70;;
20411;SDS011;10365;52.578;8.138;2023-06-10T12:19:00;5.78;;;2.70;;
20411;SDS011;10365;52.578;8.138;2023-06-10T12:21:26;7.00;;;3.03;;
20411;SDS011;10365;52.578;8.138;2023-06-10T12:26:33;8.13;;;3.30;;
20411;SDS011;10365;52.578;8.138;2023-06-10T12:28:59;7.70;;;3.50;;
20411;SDS011;10365;52.578;8.138;2023-06-10T12:31:24;5.32;;;2.80;;
20411;SDS011;10365;52.578;8.138;2023-06-10T12:33:50;6.30;;;3.03;;
20411;SDS011;10365;52.578;8.138;2023-06-10T12:36:32;6.20;;;2.83;;
20411;SDS011;10365;52.578;8.138;2023-06-10T12:39:02;5.13;;;2.80;;
20411;SDS011;10365;52.578;8.138;2023-06-10T12:41:28;3.92;;;2.85;;
20411;SDS011;10365;52.578;8.138;2023-06-10T12:43:54;6.15;;;3.05;;
20411;SDS011;10365;52.578;8.138;2023-06-10T12:46:19;9.98;;;3.22;;
20411;SDS011;10365;52.578;8.138;2023-06-10T12:48:51;8.77;;;3.33;;
20411;SDS011;10365;52.578;8.138;2023-06-10T12:51:20;5.00;;;3.08;;
20411;SDS011;10365;52.578;8.138;2023-06-10T12:53:45;4.87;;;2.93;;
20411;SDS011;10365;52.578;8.138;2023-06-10T12:56:10;6.57;;;3.10;;
20411;SDS011;10365;52.578;8.138;2023-06-10T12:58:36;6.13;;;2.88;;
20411;SDS011;10365;52.578;8.138;2023-06-10T13:01:01;5.90;;;3.10;;
20411;SDS011;10365;52.578;8.138;2023-06-10T13:03:27;6.00;;;3.10;;
20411;SDS011;10365;52.578;8.138;2023-06-10T13:05:52;11.23;;;2.97;;
20411;SDS011;10365;52.578;8.138;2023-06-10T13:08:18;6.15;;;2.80;;
20411;SDS011;10365;52.578;8.138;2023-06-10T13:10:43;5.22;;;3.03;;
20411;SDS011;10365;52.578;8.138;2023-06-10T13:13:08;4.63;;;2.95;;
20411;SDS011;10365;52.578;8.138;2023-06-10T13:15:35;3.90;;;2.88;;
20411;SDS011;10365;52.578;8.138;2023-06-10T13:18:03;6.32;;;3.10;;
20411;SDS011;10365;52.578;8.138;2023-06-10T13:20:28;3.05;;;2.70;;
20411;SDS011;10365;52.578;8.138;2023-06-10T13:22:54;6.30;;;2.70;;
20411;SDS011;10365;52.578;8.138;2023-06-10T13:25:19;5.43;;;3.03;;
20411;SDS011;10365;52.578;8.138;2023-06-10T13:27:45;4.80;;;2.85;;
20411;SDS011;10365;52.578;8.138;2023-06-10T13:30:10;5.72;;;2.90;;
20411;SDS011;10365;52.578;8.138;2023-06-10T13:32:36;4.45;;;3.40;;
20411;SDS011;10365;52.578;8.138;2023-06-10T13:35:02;5.30;;;3.08;;
20411;SDS011;10365;52.578;8.138;2023-06-10T13:37:28;5.00;;;3.08;;
20411;SDS011;10365;52.578;8.138;2023-06-10T13:39:53;5.60;;;2.67;;
20411;SDS011;10365;52.578;8.138;2023-06-10T13:42:19;4.55;;;3.25;;
20411;SDS011;10365;52.578;8.138;2023-06-10T13:44:45;5.32;;;3.25;;
20411;SDS011;10365;52.578;8.138;2023-06-10T13:47:10;7.93;;;3.72;;
20411;SDS011;10365;52.578;8.138;2023-06-10T13:49:36;4.78;;;3.10;;
20411;SDS011;10365;52.578;8.138;2023-06-10T13:52:02;4.40;;;3.00;;
20411;SDS011;10365;52.578;8.138;2023-06-10T13:54:27;7.95;;;3.25;;
20411;SDS011;10365;52.578;8.138;2023-06-10T13:56:52;4.68;;;3.08;;
20411;SDS011;10365;52.578;8.138;2023-06-10T13:59:18;5.32;;;3.17;;
20411;SDS011;10365;52.578;8.138;2023-06-10T14:01:51;6.50;;;3.10;;
20411;SDS011;10365;52.578;8.138;2023-06-10T14:04:16;6.28;;;2.83;;
20411;SDS011;10365;52.578;8.138;2023-06-10T14:06:42;6.63;;;3.13;;
20411;SDS011;10365;52.578;8.138;2023-06-10T14:09:07;5.95;;;3.13;;
20411;SDS011;10365;52.578;8.138;2023-06-10T14:11:32;5.85;;;3.30;;
20411;SDS011;10365;52.578;8.138;2023-06-10T14:13:58;5.57;;;3.00;;
20411;SDS011;10365;52.578;8.138;2023-06-10T14:16:23;4.53;;;3.03;;
20411;SDS011;10365;52.578;8.138;2023-06-10T14:18:49;4.90;;;3.60;;
20411;SDS011;10365;52.578;8.138;2023-06-10T14:21:15;5.13;;;3.22;;
20411;SDS011;10365;52.578;8.138;2023-06-10T14:23:41;5.78;;;3.33;;
20411;SDS011;10365;52.578;8.138;2023-06-10T14:26:06;5.65;;;3.30;;
20411;SDS011;10365;52.578;8.138;2023-06-10T14:28:32;6.10;;;3.72;;
20411;SDS011;10365;52.578;8.138;2023-06-10T14:30:58;6.22;;;3.60;;
20411;SDS011;10365;52.578;8.138;2023-06-10T14:33:23;5.38;;;3.60;;
20411;SDS011;10365;52.578;8.138;2023-06-10T14:35:49;5.30;;;3.10;;
20411;SDS011;10365;52.578;8.138;2023-06-10T14:38:15;4.20;;;3.20;;
20411;SDS011;10365;52.578;8.138;2023-06-10T14:40:40;9.02;;;4.47;;
20411;SDS011;10365;52.578;8.138;2023-06-10T14:43:05;7.38;;;4.28;;
20411;SDS011;10365;52.578;8.138;2023-06-10T14:45:38;6.03;;;4.10;;
20411;SDS011;10365;52.578;8.138;2023-06-10T14:48:03;5.95;;;3.78;;
20411;SDS011;10365;52.578;8.138;2023-06-10T14:50:29;9.23;;;4.28;;
20411;SDS011;10365;52.578;8.138;2023-06-10T14:52:54;7.55;;;4.45;;
20411;SDS011;10365;52.578;8.138;2023-06-10T14:55:22;9.45;;;4.20;;